Time;durP1;ratioP1;P1;durP2;ratioP2;P2;SDS_P1;SDS_P2;PMS_P1;PMS_P2;Temp;Humidity;BMP_temperature;BMP_pressure;BME280_temperature;BME280_humidity;BME280_pressure;Samples;Min_cycle;Max_cycle;Signal;HPM_P1;HPM_P2
2022/07/01 00:00:49;;;;;;;45.25;22.27;;;;;;;-147.27;100.00;65176.34;4974678;28;20047;-50
2022/07/01 00:03:15;;;;;;;46.75;22.80;;;;;;;-147.27;100.00;65176.34;4979685;28;20035;-51
2022/07/01 00:05:41;;;;;;;52.35;25.20;;;;;;;-147.27;100.00;65176.34;4977573;28;20035;-47
2022/07/01 00:08:06;;;;;;;53.08;26.80;;;;;;;-147.27;100.00;65176.34;4974786;28;20035;-46
2022/07/01 00:10:32;;;;;;;61.03;28.17;;;;;;;-147.27;100.00;65176.34;4981842;28;20058;-46
2022/07/01 00:12:58;;;;;;;;;;;;;;;-147.27;100.00;65176.34;4979785;28;20054;-50
2022/07/01 00:15:23;;;;;;;58.07;26.93;;;;;;;-147.27;100.00;65176.34;4976476;28;19933;-48
2022/07/01 00:17:49;;;;;;;62.00;29.40;;;;;;;-147.27;100.00;65176.34;4979535;28;20050;-49
2022/07/01 00:20:15;;;;;;;;;;;;;;;-147.27;100.00;65176.34;4962437;28;20028;-51
2022/07/01 00:22:41;;;;;;;64.40;31.77;;;;;;;-147.27;100.00;65176.34;4983382;28;19938;-50
2022/07/01 00:25:07;;;;;;;73.00;34.15;;;;;;;-147.27;100.00;65176.34;4979074;28;20094;-47
2022/07/01 00:27:37;;;;;;;71.70;36.23;;;;;;;-147.27;100.00;65176.34;4983584;28;20035;-48
2022/07/01 00:30:03;;;;;;;73.27;35.07;;;;;;;-147.27;100.00;65176.34;4977568;28;20265;-47
2022/07/01 00:32:29;;;;;;;65.72;32.70;;;;;;;-147.27;100.00;65176.34;4980323;28;20304;-49
2022/07/01 00:34:54;;;;;;;68.87;32.47;;;;;;;-147.27;100.00;65176.34;4942782;28;20103;-47
2022/07/01 00:37:20;;;;;;;72.10;34.13;;;;;;;-147.27;100.00;65176.34;4942571;29;20051;-49
2022/07/01 00:39:45;;;;;;;74.07;34.90;;;;;;;-147.27;100.00;65176.34;4940761;29;20044;-52
2022/07/01 00:42:11;;;;;;;69.37;35.30;;;;;;;-147.27;100.00;65176.34;4940547;29;20267;-49
2022/07/01 00:44:36;;;;;;;69.45;33.90;;;;;;;-147.27;100.00;65176.34;4936073;28;20132;-49
2022/07/01 00:47:07;;;;;;;68.93;35.65;;;;;;;-147.27;100.00;65176.34;4943844;28;20040;-47
2022/07/01 00:49:32;;;;;;;73.40;34.00;;;;;;;-147.27;100.00;65176.34;4934179;29;20036;-49
2022/07/01 00:51:59;;;;;;;70.05;34.75;;;;;;;-147.27;100.00;65176.34;4944059;28;20259;-50
2022/07/01 00:54:26;;;;;;;68.80;36.67;;;;;;;-147.27;100.00;65176.34;4940377;29;20071;-53
2022/07/01 00:56:52;;;;;;;67.00;34.70;;;;;;;-147.27;100.00;65176.34;4943193;28;20092;-49
2022/07/01 00:59:17;;;;;;;68.95;33.83;;;;;;;-147.27;100.00;65176.34;4939419;29;20286;-46
2022/07/01 01:01:43;;;;;;;68.17;35.07;;;;;;;-147.27;100.00;65176.34;4936211;29;20044;-49
2022/07/01 01:04:09;;;;;;;66.63;34.22;;;;;;;-147.27;100.00;65176.34;4935731;29;20104;-50
2022/07/01 01:06:34;;;;;;;75.97;35.45;;;;;;;-147.27;100.00;65176.34;4942596;29;20040;-47
2022/07/01 01:09:00;;;;;;;69.83;34.67;;;;;;;-147.27;100.00;65176.34;4940964;29;20039;-48
2022/07/01 01:11:26;;;;;;;64.73;31.77;;;;;;;-147.27;100.00;65176.34;4938427;29;20100;-51
2022/07/01 01:13:51;;;;;;;;;;;;;;;-147.27;100.00;65176.34;4932918;29;20088;-49
2022/07/01 01:16:19;;;;;;;69.97;33.63;;;;;;;-147.27;100.00;65176.34;4954217;28;19922;-49
2022/07/01 01:18:45;;;;;;;69.40;34.03;;;;;;;-147.27;100.00;65176.34;4943363;28;20047;-47
2022/07/01 01:21:11;;;;;;;71.93;34.05;;;;;;;-147.27;100.00;65176.34;4941722;29;20271;-48
2022/07/01 01:23:37;;;;;;;71.35;35.30;;;;;;;-147.27;100.00;65176.34;4939790;28;20032;-50
2022/07/01 01:26:03;;;;;;;69.72;34.75;;;;;;;-147.27;100.00;65176.34;4941223;29;20032;-48
2022/07/01 01:28:29;;;;;;;70.15;35.80;;;;;;;-147.27;100.00;65176.34;4945792;29;20063;-49
2022/07/01 01:30:54;;;;;;;72.88;35.30;;;;;;;-147.27;100.00;65176.34;4946713;29;20059;-48
2022/07/01 01:33:20;;;;;;;70.45;34.58;;;;;;;-147.27;100.00;65176.34;4960195;28;20110;-49
2022/07/01 01:35:46;;;;;;;65.70;33.90;;;;;;;-147.27;100.00;65176.34;4978515;28;20035;-50
2022/07/01 01:38:12;;;;;;;;;;;;;;;-147.27;100.00;65176.34;4981738;28;20050;-48
2022/07/01 01:40:37;;;;;;;67.97;33.50;;;;;;;-147.27;100.00;65176.34;4979039;28;19933;-51
2022/07/01 01:43:03;;;;;;;69.67;35.57;;;;;;;-147.27;100.00;65176.34;4982833;28;20039;-51
2022/07/01 01:45:28;;;;;;;72.72;35.50;;;;;;;-147.27;100.00;65176.34;4981899;28;20042;-48
2022/07/01 01:47:54;;;;;;;66.60;33.00;;;;;;;-147.27;100.00;65176.34;4985848;28;20036;-50
2022/07/01 01:50:20;;;;;;;65.97;33.57;;;;;;;-147.27;100.00;65176.34;4979887;28;20045;-50
2022/07/01 01:52:47;;;;;;;61.88;34.05;;;;;;;-147.27;100.00;65176.34;4979982;28;20031;-51
2022/07/01 01:55:13;;;;;;;63.63;33.42;;;;;;;-147.27;100.00;65176.34;4979726;28;20046;-51
2022/07/01 01:57:39;;;;;;;61.08;33.40;;;;;;;-147.27;100.00;65176.34;4985976;28;20040;-50
2022/07/01 02:00:07;;;;;;;65.18;33.45;;;;;;;-147.27;100.00;65176.34;4981453;28;20035;-52
2022/07/01 02:02:39;;;;;;;61.30;32.83;;;;;;;-147.27;100.00;65176.34;4980498;28;20118;-48
2022/07/01 02:05:07;;;;;;;66.90;33.23;;;;;;;-147.27;100.00;65176.34;4978288;28;20273;-50
2022/07/01 02:07:33;;;;;;;73.87;37.17;;;;;;;-147.27;100.00;65176.34;4983198;28;20111;-49
2022/07/01 02:09:58;;;;;;;67.17;32.80;;;;;;;-147.27;100.00;65176.34;4978714;28;20282;-48
2022/07/01 02:12:24;;;;;;;67.78;34.03;;;;;;;-147.27;100.00;65176.34;4982515;28;20047;-47
2022/07/01 02:14:49;;;;;;;66.22;34.03;;;;;;;-147.27;100.00;65176.34;4981276;28;20108;-52
2022/07/01 02:17:15;;;;;;;68.80;34.40;;;;;;;-147.27;100.00;65176.34;4979784;28;20061;-51
2022/07/01 02:19:40;;;;;;;72.95;34.75;;;;;;;-147.27;100.00;65176.34;4977033;28;20062;-49
2022/07/01 02:22:06;;;;;;;72.57;34.80;;;;;;;-147.27;100.00;65176.34;4980501;28;20046;-51
2022/07/01 02:24:31;;;;;;;74.70;34.27;;;;;;;-147.27;100.00;65176.34;4980886;28;20067;-50
2022/07/01 02:26:57;;;;;;;80.70;36.57;;;;;;;-147.27;100.00;65176.34;4976739;28;20050;-48
2022/07/01 02:29:22;;;;;;;72.28;35.05;;;;;;;-147.27;100.00;65176.34;4981181;28;20106;-48
2022/07/01 02:31:48;;;;;;;73.40;36.20;;;;;;;-147.27;100.00;65176.34;4983537;28;20035;-51
2022/07/01 02:34:14;;;;;;;81.53;35.00;;;;;;;-147.27;100.00;65176.34;4979835;28;20047;-52
2022/07/01 02:36:40;;;;;;;;;;;;;;;-147.27;100.00;65176.34;4982309;28;20142;-47
2022/07/01 02:39:05;;;;;;;72.23;33.30;;;;;;;-147.27;100.00;65176.34;4983382;28;19914;-49
2022/07/01 02:41:31;;;;;;;80.68;34.85;;;;;;;-147.27;100.00;65176.34;4979844;28;20039;-48
2022/07/01 02:43:56;;;;;;;80.00;36.38;;;;;;;-147.27;100.00;65176.34;4982362;28;20091;-48
2022/07/01 02:46:22;;;;;;;86.30;38.55;;;;;;;-147.27;100.00;65176.34;4980734;28;20090;-46
2022/07/01 02:48:47;;;;;;;84.13;35.63;;;;;;;-147.27;100.00;65176.34;4984159;28;20068;-47
2022/07/01 02:51:13;;;;;;;88.33;37.67;;;;;;;-147.27;100.00;65176.34;4979070;28;20038;-47
2022/07/01 02:53:38;;;;;;;97.50;39.47;;;;;;;-147.27;100.00;65176.34;4984863;28;20038;-50
2022/07/01 02:56:04;;;;;;;91.00;38.20;;;;;;;-147.27;100.00;65176.34;4978672;28;20094;-47
2022/07/01 02:58:29;;;;;;;91.80;38.85;;;;;;;-147.27;100.00;65176.34;4981903;28;20058;-48
2022/07/01 03:00:55;;;;;;;98.53;40.33;;;;;;;-147.27;100.00;65176.34;4980906;28;20033;-47
2022/07/01 03:03:20;;;;;;;98.68;41.55;;;;;;;-147.27;100.00;65176.34;4983851;28;20035;-46
2022/07/01 03:05:47;;;;;;;100.00;38.67;;;;;;;-147.27;100.00;65176.34;4980516;28;20065;-49
2022/07/01 03:08:13;;;;;;;100.40;39.73;;;;;;;-147.27;100.00;65176.34;4978237;28;20047;-49
2022/07/01 03:10:38;;;;;;;94.33;41.30;;;;;;;-147.27;100.00;65176.34;4978982;28;20343;-52
2022/07/01 03:13:04;;;;;;;97.80;39.17;;;;;;;-147.27;100.00;65176.34;4981096;28;20365;-49
2022/07/01 03:15:29;;;;;;;95.65;41.22;;;;;;;-147.27;100.00;65176.34;4983017;28;20774;-51
2022/07/01 03:17:55;;;;;;;100.10;39.97;;;;;;;-147.27;100.00;65176.34;4975275;28;20039;-48
2022/07/01 03:20:20;;;;;;;94.65;39.47;;;;;;;-147.27;100.00;65176.34;4977986;28;20162;-48
2022/07/01 03:22:47;;;;;;;89.00;41.72;;;;;;;-147.27;100.00;65176.34;4977181;28;20032;-49
2022/07/01 03:25:13;;;;;;;87.55;39.08;;;;;;;-147.27;100.00;65176.34;4978855;28;20035;-49
2022/07/01 03:27:44;;;;;;;84.07;37.55;;;;;;;-147.27;100.00;65176.34;4981135;28;20035;-51
2022/07/01 03:30:11;;;;;;;78.50;36.67;;;;;;;-147.27;100.00;65176.34;4978194;28;20031;-49
2022/07/01 03:32:36;;;;;;;74.35;34.53;;;;;;;-147.27;100.00;65176.34;4983826;28;20311;-49
2022/07/01 03:35:35;;;;;;;77.25;35.78;;;;;;;-147.27;100.00;65176.34;4983220;28;20060;-49
2022/07/01 03:37:49;;;;;;;73.35;36.75;;;;;;;-147.27;100.00;65176.34;4976064;28;20042;-51
2022/07/01 03:40:14;;;;;;;71.78;35.50;;;;;;;-147.27;100.00;65176.34;4985691;28;20071;-47
2022/07/01 03:42:40;;;;;;;72.63;35.70;;;;;;;-147.27;100.00;65176.34;4979769;28;20030;-46
2022/07/01 03:45:06;;;;;;;77.15;34.95;;;;;;;-147.27;100.00;65176.34;4979541;28;20073;-49
2022/07/01 03:47:32;;;;;;;71.65;35.10;;;;;;;-147.27;100.00;65176.34;4977374;28;20038;-48
2022/07/01 03:49:58;;;;;;;69.00;32.10;;;;;;;-147.27;100.00;65176.34;4979339;28;20035;-46
2022/07/01 03:52:24;;;;;;;77.38;33.70;;;;;;;-147.27;100.00;65176.34;4977814;28;20035;-46
2022/07/01 03:54:49;;;;;;;65.00;31.27;;;;;;;-147.27;100.00;65176.34;4982615;28;20053;-48
2022/07/01 03:57:14;;;;;;;69.23;32.13;;;;;;;-147.27;100.00;65176.34;4980620;28;20035;-46
2022/07/01 03:59:41;;;;;;;;;;;;;;;-147.27;100.00;65176.34;4981367;28;20129;-46
2022/07/01 04:02:07;;;;;;;70.57;33.13;;;;;;;-147.27;100.00;65176.34;4978692;28;19914;-49
2022/07/01 04:04:34;;;;;;;70.13;33.75;;;;;;;-147.27;100.00;65176.34;4981109;28;20107;-46
2022/07/01 04:07:02;;;;;;;70.93;32.60;;;;;;;-147.27;100.00;65176.34;4979552;28;20034;-47
2022/07/01 04:09:29;;;;;;;73.03;34.03;;;;;;;-147.27;100.00;65176.34;4977103;28;20274;-46
2022/07/01 04:11:55;;;;;;;74.57;33.88;;;;;;;-147.27;100.00;65176.34;4979444;28;20295;-50
2022/07/01 04:14:20;;;;;;;70.47;33.17;;;;;;;-147.27;100.00;65176.34;4977989;28;20118;-48
2022/07/01 04:16:46;;;;;;;67.10;32.20;;;;;;;-147.27;100.00;65176.34;4979100;28;20039;-49
2022/07/01 04:19:16;;;;;;;73.68;33.60;;;;;;;-147.27;100.00;65176.34;4982060;28;20039;-53
2022/07/01 04:24:28;;;;;;;61.93;30.77;;;;;;;-147.27;100.00;65176.34;4978686;28;20287;-51
2022/07/01 04:26:54;;;;;;;72.80;34.20;;;;;;;-147.27;100.00;65176.34;4976797;28;20294;-49
2022/07/01 04:29:20;;;;;;;73.70;34.08;;;;;;;-147.27;100.00;65176.34;5002974;28;20299;-47
2022/07/01 04:31:45;;;;;;;67.40;32.65;;;;;;;-147.27;100.00;65176.34;4981265;28;20036;-50
2022/07/01 04:34:11;;;;;;;63.92;33.30;;;;;;;-147.27;100.00;65176.34;4975974;28;20077;-47
2022/07/01 04:36:37;;;;;;;63.20;32.78;;;;;;;-147.27;100.00;65176.34;4980341;28;20035;-46
2022/07/01 04:39:04;;;;;;;63.50;30.80;;;;;;;-147.27;100.00;65176.34;4982433;28;20046;-46
2022/07/01 04:44:14;;;;;;;64.13;30.83;;;;;;;-147.27;100.00;65176.34;4979377;28;20269;-49
2022/07/01 04:46:40;;;;;;;55.72;28.08;;;;;;;-147.27;100.00;65176.34;4980701;28;20279;-47
2022/07/01 04:49:06;;;;;;;64.55;30.15;;;;;;;-147.27;100.00;65176.34;4981133;28;20062;-51
2022/07/01 04:51:34;;;;;;;57.55;27.27;;;;;;;-147.27;100.00;65176.34;4978899;28;20039;-47
2022/07/01 04:54:00;;;;;;;55.83;29.13;;;;;;;-147.27;100.00;65176.34;4980242;28;20098;-49
2022/07/01 04:56:28;;;;;;;55.97;25.77;;;;;;;-147.27;100.00;65176.34;4975796;28;20269;-49
2022/07/01 04:58:55;;;;;;;56.87;26.77;;;;;;;-147.27;100.00;65176.34;4974123;28;20061;-48
2022/07/01 05:01:22;;;;;;;59.87;27.73;;;;;;;-147.27;100.00;65176.34;4977680;28;20277;-52
2022/07/01 05:03:48;;;;;;;56.53;26.67;;;;;;;-147.27;100.00;65176.34;4982672;28;20257;-49
2022/07/01 05:06:14;;;;;;;57.08;26.95;;;;;;;-147.27;100.00;65176.34;4977097;28;20332;-52
2022/07/01 05:08:39;;;;;;;52.42;25.52;;;;;;;-147.27;100.00;65176.34;4977737;28;20038;-52
2022/07/01 05:11:04;;;;;;;57.15;27.23;;;;;;;-147.27;100.00;65176.34;4978271;28;20050;-54
2022/07/01 05:13:30;;;;;;;53.42;27.40;;;;;;;-147.27;100.00;65176.34;4978885;28;20039;-49
2022/07/01 05:15:56;;;;;;;68.53;27.25;;;;;;;-147.27;100.00;65176.34;4981283;28;20034;-47
2022/07/01 05:24:09;;;;;;;61.27;25.83;;;;;;;-147.27;100.00;65176.34;4928672;29;20282;-48
2022/07/01 05:26:34;;;;;;;52.22;25.10;;;;;;;-147.27;100.00;65176.34;4936764;29;20342;-49
2022/07/01 05:29:00;;;;;;;49.72;25.40;;;;;;;-147.27;100.00;65176.34;4955097;28;20046;-45
2022/07/01 05:31:26;;;;;;;55.28;24.27;;;;;;;-147.27;100.00;65176.34;4981935;28;20050;-50
2022/07/01 05:33:52;;;;;;;50.50;24.52;;;;;;;-147.27;100.00;65176.34;4979417;28;20082;-47
2022/07/01 05:36:17;;;;;;;51.38;24.45;;;;;;;-147.27;100.00;65176.34;4979215;28;20043;-48
2022/07/01 05:38:43;;;;;;;48.08;24.88;;;;;;;-147.27;100.00;65176.34;4978513;28;20043;-48
2022/07/01 05:41:09;;;;;;;50.53;23.70;;;;;;;-147.27;100.00;65176.34;4977034;28;20039;-48
2022/07/01 05:43:34;;;;;;;63.72;24.45;;;;;;;-147.27;100.00;65176.34;4978474;28;20039;-51
2022/07/01 05:46:00;;;;;;;49.88;23.35;;;;;;;-147.27;100.00;65176.34;4981222;28;20031;-49
2022/07/01 05:48:27;;;;;;;47.72;22.75;;;;;;;-147.27;100.00;65176.34;4977787;28;20063;-47
2022/07/01 05:50:53;;;;;;;49.28;22.50;;;;;;;-147.27;100.00;65176.34;4976754;28;20198;-49
2022/07/01 05:53:19;;;;;;;;;;;;;;;-147.27;100.00;65176.34;4978721;28;20035;-51
2022/07/01 05:55:45;;;;;;;50.53;22.47;;;;;;;-147.27;100.00;65176.34;4980658;28;19929;-52
2022/07/01 05:58:11;;;;;;;49.08;22.33;;;;;;;-147.27;100.00;65176.34;4980510;28;20276;-49
2022/07/01 06:00:41;;;;;;;44.95;22.13;;;;;;;-147.27;100.00;65176.34;4982339;28;20039;-47
2022/07/01 06:03:07;;;;;;;41.77;21.57;;;;;;;-147.27;100.00;65176.34;4975599;28;20028;-47
2022/07/01 06:05:32;;;;;;;50.65;22.65;;;;;;;-147.27;100.00;65176.34;4975348;28;20288;-49
2022/07/01 06:07:58;;;;;;;50.67;22.25;;;;;;;-147.27;100.00;65176.34;4977314;28;20043;-49
2022/07/01 06:10:23;;;;;;;47.80;23.03;;;;;;;-147.27;100.00;65176.34;4976122;28;20115;-50
2022/07/01 06:12:49;;;;;;;46.33;20.93;;;;;;;-147.27;100.00;65176.34;4978824;28;20043;-49
2022/07/01 06:15:14;;;;;;;51.58;21.88;;;;;;;-147.27;100.00;65176.34;4979496;28;20051;-48
2022/07/01 06:17:41;;;;;;;40.25;19.90;;;;;;;-147.27;100.00;65176.34;4981779;28;20066;-48
2022/07/01 06:20:08;;;;;;;37.67;19.23;;;;;;;-147.27;100.00;65176.34;4980635;28;20031;-50
2022/07/01 06:22:33;;;;;;;45.93;20.30;;;;;;;-147.27;100.00;65176.34;4973529;28;20050;-46
2022/07/01 06:25:01;;;;;;;45.05;19.23;;;;;;;-147.27;100.00;65176.34;4982991;28;20272;-49
2022/07/01 06:27:27;;;;;;;43.30;19.63;;;;;;;-147.27;100.00;65176.34;4974705;28;20046;-48
2022/07/01 06:29:53;;;;;;;41.10;17.13;;;;;;;-147.27;100.00;65176.34;4974023;28;20288;-48
2022/07/01 06:32:18;;;;;;;45.07;18.50;;;;;;;-147.27;100.00;65176.34;4980617;28;20047;-49
2022/07/01 06:34:44;;;;;;;;;;;;;;;-147.27;100.00;65176.34;4978665;28;20078;-53
2022/07/01 06:37:10;;;;;;;36.37;17.03;;;;;;;-147.27;100.00;65176.34;4979884;28;19929;-47
2022/07/01 06:39:35;;;;;;;34.03;15.75;;;;;;;-147.27;100.00;65176.34;4962820;28;20035;-50
2022/07/01 06:42:01;;;;;;;37.72;16.48;;;;;;;-147.27;100.00;65176.34;4977265;28;20110;-47
2022/07/01 06:44:26;;;;;;;36.80;17.57;;;;;;;-147.27;100.00;65176.34;4978483;28;20058;-49
2022/07/01 06:46:51;;;;;;;30.73;15.20;;;;;;;-147.27;100.00;65176.34;4980873;28;20070;-48
2022/07/01 06:49:17;;;;;;;28.08;13.27;;;;;;;-147.27;100.00;65176.34;4981760;28;20038;-49
2022/07/01 06:51:43;;;;;;;41.97;15.27;;;;;;;-147.27;100.00;65176.34;4973613;28;20047;-50
2022/07/01 06:54:08;;;;;;;28.37;14.43;;;;;;;-147.27;100.00;65176.34;4975584;28;20039;-49
2022/07/01 06:56:34;;;;;;;31.02;14.45;;;;;;;-147.27;100.00;65176.34;4963558;28;20328;-49
2022/07/01 06:59:01;;;;;;;31.25;11.73;;;;;;;-147.27;100.00;65176.34;4974171;28;20093;-48
2022/07/01 07:01:26;;;;;;;27.43;12.40;;;;;;;-147.27;100.00;65176.34;4969904;28;20051;-53
2022/07/01 07:03:52;;;;;;;21.77;11.80;;;;;;;-147.27;100.00;65176.34;4972704;28;20270;-51
2022/07/01 07:06:17;;;;;;;19.63;9.83;;;;;;;-147.27;100.00;65176.34;4954529;28;20040;-49
2022/07/01 07:08:42;;;;;;;15.20;7.50;;;;;;;-147.27;100.00;65176.34;4975713;28;20039;-50
2022/07/01 07:11:08;;;;;;;18.20;8.55;;;;;;;-147.27;100.00;65176.34;4967483;28;20054;-50
2022/07/01 07:13:35;;;;;;;20.73;7.83;;;;;;;-147.27;100.00;65176.34;4973945;28;20064;-52
2022/07/01 07:16:01;;;;;;;19.77;8.33;;;;;;;-147.27;100.00;65176.34;4976633;28;20045;-47
2022/07/01 07:18:26;;;;;;;17.35;7.20;;;;;;;-147.27;100.00;65176.34;4975005;28;20289;-48
2022/07/01 07:20:51;;;;;;;19.48;8.18;;;;;;;-147.27;100.00;65176.34;4973764;28;20039;-49
2022/07/01 07:23:17;;;;;;;27.13;10.47;;;;;;;-147.27;100.00;65176.34;4974478;28;20099;-51
2022/07/01 07:25:42;;;;;;;24.58;10.35;;;;;;;-147.27;100.00;65176.34;4979331;28;20039;-48
2022/07/01 07:28:08;;;;;;;21.53;7.80;;;;;;;-147.27;100.00;65176.34;4977197;28;20049;-52
2022/07/01 07:30:33;;;;;;;30.90;10.13;;;;;;;-147.27;100.00;65176.34;4978648;28;20314;-50
2022/07/01 07:32:59;;;;;;;25.65;10.13;;;;;;;-147.27;100.00;65176.34;4975798;28;20070;-48
2022/07/01 07:35:24;;;;;;;17.95;7.60;;;;;;;-147.27;100.00;65176.34;4971576;28;20057;-50
2022/07/01 07:37:50;;;;;;;27.77;10.50;;;;;;;-147.27;100.00;65176.34;4976429;28;20039;-49
2022/07/01 07:40:18;;;;;;;41.92;16.05;;;;;;;-147.27;100.00;65176.34;4977556;28;20035;-50
2022/07/01 07:42:45;;;;;;;14.67;5.83;;;;;;;-147.27;100.00;65176.34;4975868;28;20094;-50
2022/07/01 07:45:14;;;;;;;26.83;10.73;;;;;;;-147.27;100.00;65176.34;4978638;28;20273;-49
2022/07/01 07:47:44;;;;;;;13.73;5.63;;;;;;;-147.27;100.00;65176.34;4971860;28;20046;-49
2022/07/01 07:50:09;;;;;;;16.87;5.17;;;;;;;-147.27;100.00;65176.34;4975725;28;20061;-52
2022/07/01 07:52:35;;;;;;;14.27;7.07;;;;;;;-147.27;100.00;65176.34;4974563;28;20042;-52
2022/07/01 07:55:02;;;;;;;15.55;6.45;;;;;;;-147.27;100.00;65176.34;4975636;28;20039;-49
2022/07/01 07:57:27;;;;;;;;;;;;;;;-147.27;100.00;65176.34;4978783;28;20039;-55
2022/07/01 07:59:52;;;;;;;9.13;4.33;;;;;;;-147.27;100.00;65176.34;4975327;28;19929;-49
2022/07/01 08:02:18;;;;;;;15.52;4.43;;;;;;;-147.27;100.00;65176.34;4974333;28;20027;-51
2022/07/01 08:04:43;;;;;;;17.63;7.77;;;;;;;-147.27;100.00;65176.34;4977005;28;20036;-47
2022/07/01 08:07:09;;;;;;;14.82;6.85;;;;;;;-147.27;100.00;65176.34;4974522;28;20305;-48
2022/07/01 08:09:34;;;;;;;12.07;4.78;;;;;;;-147.27;100.00;65176.34;4978421;28;20046;-52
2022/07/01 08:12:03;;;;;;;27.80;12.00;;;;;;;-147.27;100.00;65176.34;4975814;28;20027;-47
2022/07/01 08:14:29;;;;;;;15.10;4.40;;;;;;;-147.27;100.00;65176.34;4977409;28;20047;-47
2022/07/01 08:16:55;;;;;;;9.30;3.43;;;;;;;-147.27;100.00;65176.34;4976915;28;20027;-53
2022/07/01 08:19:21;;;;;;;9.43;3.92;;;;;;;-147.27;100.00;65176.34;4975566;28;20061;-47
2022/07/01 08:21:46;;;;;;;29.25;11.95;;;;;;;-147.27;100.00;65176.34;4984786;28;20043;-49
2022/07/01 08:24:12;;;;;;;16.00;6.07;;;;;;;-147.27;100.00;65176.34;4978172;28;20035;-47
2022/07/01 08:26:37;;;;;;;24.40;9.25;;;;;;;-147.27;100.00;65176.34;4964140;28;20106;-54
2022/07/01 08:29:04;;;;;;;11.93;3.53;;;;;;;-147.27;100.00;65176.34;4986106;28;20034;-50
2022/07/01 08:31:31;;;;;;;15.30;4.23;;;;;;;-147.27;100.00;65176.34;4975005;28;20039;-51
2022/07/01 08:33:57;;;;;;;;;;;;;;;-147.27;100.00;65176.34;4976940;28;20047;-48
2022/07/01 08:36:23;;;;;;;11.23;3.53;;;;;;;-147.27;100.00;65176.34;4975859;28;19915;-51
2022/07/01 08:38:49;;;;;;;10.48;4.70;;;;;;;-147.27;100.00;65176.34;4977669;28;20179;-49
2022/07/01 08:41:15;;;;;;;;;;;;;;;-147.27;100.00;65176.34;4972650;28;20031;-51
2022/07/01 08:43:40;;;;;;;9.37;2.60;;;;;;;-147.27;100.00;65176.34;4976080;28;19933;-50
2022/07/01 08:46:07;;;;;;;8.77;2.60;;;;;;;-147.27;100.00;65176.34;4975373;28;20060;-50
2022/07/01 08:48:34;;;;;;;12.60;3.17;;;;;;;-147.27;100.00;65176.34;5008254;28;20106;-51
2022/07/01 08:51:03;;;;;;;11.43;3.17;;;;;;;-147.27;100.00;65176.34;4972889;28;20061;-47
2022/07/01 08:53:30;;;;;;;21.33;8.23;;;;;;;-147.27;100.00;65176.34;4973639;28;20071;-50
2022/07/01 08:58:41;;;;;;;10.80;2.77;;;;;;;-147.27;100.00;65176.34;4972730;28;20040;-51
2022/07/01 09:01:21;;;;;;;7.03;2.20;;;;;;;-147.27;100.00;65176.34;4966369;28;20030;-49
2022/07/01 09:03:49;;;;;;;8.67;2.50;;;;;;;-147.27;100.00;65176.34;4969568;28;20027;-50
2022/07/01 09:06:17;;;;;;;9.03;2.03;;;;;;;-147.27;100.00;65176.34;4975957;28;20050;-49
2022/07/01 09:08:44;;;;;;;5.87;1.83;;;;;;;-147.27;100.00;65176.34;4975612;28;20054;-52
2022/07/01 09:11:20;;;;;;;5.50;1.87;;;;;;;-147.27;100.00;65176.34;4969562;28;20027;-52
2022/07/01 09:14:03;;;;;;;3.93;1.60;;;;;;;-147.27;100.00;65176.34;4972035;28;20039;-52
2022/07/01 09:16:29;;;;;;;8.40;1.30;;;;;;;-147.27;100.00;65176.34;4971059;28;20039;-47
2022/07/01 09:19:02;;;;;;;8.35;1.30;;;;;;;-147.27;100.00;65176.34;4970060;28;20035;-51
2022/07/01 09:21:31;;;;;;;4.87;0.97;;;;;;;-147.27;100.00;65176.34;4970876;28;20027;-48
2022/07/01 09:24:21;;;;;;;4.10;1.00;;;;;;;-147.27;100.00;65176.34;4971814;28;20023;-51
2022/07/01 09:26:58;;;;;;;6.07;1.37;;;;;;;-147.27;100.00;65176.34;4974579;28;20038;-50
2022/07/01 09:29:34;;;;;;;5.50;1.20;;;;;;;-147.27;100.00;65176.34;4971757;28;20047;-51
2022/07/01 09:32:03;;;;;;;8.32;2.70;;;;;;;-147.27;100.00;65176.34;4971295;28;20118;-50
2022/07/01 09:34:40;;;;;;;13.07;5.77;;;;;;;-147.27;100.00;65176.34;4973948;28;20050;-49
2022/07/01 09:37:06;;;;;;;18.10;6.07;;;;;;;-147.27;100.00;65176.34;4971903;28;20058;-54
2022/07/01 09:39:53;;;;;;;15.85;5.65;;;;;;;-147.27;100.00;65176.34;4976866;28;20058;-55
2022/07/01 09:42:21;;;;;;;58.27;24.50;;;;;;;-147.27;100.00;65176.34;4974939;28;20047;-53
2022/07/01 09:45:03;;;;;;;13.33;3.87;;;;;;;-147.27;100.00;65176.34;4972654;28;20058;-53
2022/07/01 09:47:30;;;;;;;16.27;5.37;;;;;;;-147.27;100.00;65176.34;4976083;28;20049;-54
2022/07/01 09:49:57;;;;;;;15.57;6.83;;;;;;;-147.27;100.00;65176.34;4974378;28;20058;-54
2022/07/01 09:52:23;;;;;;;16.23;4.50;;;;;;;-147.27;100.00;65176.34;4978566;28;20046;-54
2022/07/01 09:54:50;;;;;;;36.60;15.90;;;;;;;-147.27;100.00;65176.34;4981516;28;20038;-55
2022/07/01 09:57:20;;;;;;;11.40;4.43;;;;;;;-147.27;100.00;65176.34;4982537;28;20038;-56
2022/07/01 09:59:45;;;;;;;13.73;4.80;;;;;;;-147.27;100.00;65176.34;4983547;28;20041;-53
2022/07/01 10:02:12;;;;;;;16.85;6.60;;;;;;;-147.27;100.00;65176.34;4980607;28;20050;-52
2022/07/01 10:04:41;;;;;;;7.50;2.77;;;;;;;-147.27;100.00;65176.34;4977075;28;20031;-51
2022/07/01 10:07:28;;;;;;;12.63;4.50;;;;;;;-147.27;100.00;65176.34;4980358;28;20087;-51
2022/07/01 10:10:09;;;;;;;13.53;3.87;;;;;;;-147.27;100.00;65176.34;4982088;28;20039;-52
2022/07/01 10:12:48;;;;;;;22.93;7.47;;;;;;;-147.27;100.00;65176.34;4978681;28;20119;-51
2022/07/01 10:15:17;;;;;;;15.07;3.77;;;;;;;-147.27;100.00;65176.34;4976781;28;20039;-53
2022/07/01 10:17:46;;;;;;;24.23;8.30;;;;;;;-147.27;100.00;65176.34;4980151;28;20038;-54
2022/07/01 10:20:14;;;;;;;30.83;12.13;;;;;;;-147.27;100.00;65176.34;4975548;28;20061;-51
2022/07/01 10:22:41;;;;;;;27.63;12.05;;;;;;;-147.27;100.00;65176.34;4979552;28;20035;-56
2022/07/01 10:25:45;;;;;;;15.57;5.47;;;;;;;-147.27;100.00;65176.34;4978229;28;20031;-53
2022/07/01 10:28:25;;;;;;;5.65;1.35;;;;;;;-147.27;100.00;65176.34;4978446;28;20027;-52
2022/07/01 10:31:01;;;;;;;7.88;2.05;;;;;;;-147.27;100.00;65176.34;4975013;28;20049;-52
2022/07/01 10:33:31;;;;;;;15.80;5.90;;;;;;;-147.27;100.00;65176.34;4983311;28;20051;-55
2022/07/01 10:36:10;;;;;;;5.97;2.00;;;;;;;-147.27;100.00;65176.34;4976041;28;20050;-54
2022/07/01 10:41:33;;;;;;;20.05;7.18;;;;;;;-147.27;100.00;65176.34;4979437;28;20031;-59
2022/07/01 10:44:03;;;;;;;14.07;5.60;;;;;;;-147.27;100.00;65176.34;4977606;28;20023;-53
2022/07/01 10:46:46;;;;;;;7.57;3.22;;;;;;;-147.27;100.00;65176.34;4980026;28;20031;-54
2022/07/01 10:49:13;;;;;;;111.60;50.75;;;;;;;-147.27;100.00;65176.34;4975556;28;20039;-51
2022/07/01 10:51:51;;;;;;;18.83;9.00;;;;;;;-147.27;100.00;65176.34;4976670;28;20039;-50
2022/07/01 10:54:45;;;;;;;9.38;3.55;;;;;;;-147.27;100.00;65176.34;4978715;28;20090;-53
2022/07/01 10:57:16;;;;;;;6.38;2.55;;;;;;;-147.27;100.00;65176.34;4977576;28;20053;-51
2022/07/01 10:59:43;;;;;;;8.57;3.63;;;;;;;-147.27;100.00;65176.34;4977548;28;20037;-49
2022/07/01 11:02:12;;;;;;;4.20;1.65;;;;;;;-147.27;100.00;65176.34;4980714;28;20031;-50
2022/07/01 11:04:38;;;;;;;8.70;2.78;;;;;;;-147.27;100.00;65176.34;4979483;28;20052;-52
2022/07/01 11:07:04;;;;;;;14.90;6.00;;;;;;;-147.27;100.00;65176.34;4982308;28;20054;-49
2022/07/01 11:09:29;;;;;;;22.17;11.27;;;;;;;-147.27;100.00;65176.34;4981248;28;20094;-55
2022/07/01 11:11:54;;;;;;;10.55;4.93;;;;;;;-147.27;100.00;65176.34;4979194;28;20035;-49
2022/07/01 11:14:20;;;;;;;5.55;1.48;;;;;;;-147.27;100.00;65176.34;4971952;28;20034;-54
2022/07/01 11:16:45;;;;;;;5.95;1.55;;;;;;;-147.27;100.00;65176.34;4972489;28;20032;-55